sensor_id;sensor_type;location;lat;lon;timestamp;pressure;altitude;pressure_sealevel;temperature;humidity
33625;BME280;19962;47.820;1.930;2023-04-24T00:00:29;99837.66;;;13.96;78.46
33625;BME280;19962;47.820;1.930;2023-04-24T00:02:57;99829.72;;;14.05;78.14
33625;BME280;19962;47.820;1.930;2023-04-24T00:05:23;99828.59;;;14.01;77.57
33625;BME280;19962;47.820;1.930;2023-04-24T00:07:50;99834.88;;;13.91;78.31
33625;BME280;19962;47.820;1.930;2023-04-24T00:10:20;99837.63;;;13.91;78.08
33625;BME280;19962;47.820;1.930;2023-04-24T00:12:46;99834.63;;;13.93;77.94
33625;BME280;19962;47.820;1.930;2023-04-24T00:15:12;99840.16;;;13.98;77.90
33625;BME280;19962;47.820;1.930;2023-04-24T00:17:39;99843.47;;;13.95;77.44
33625;BME280;19962;47.820;1.930;2023-04-24T00:20:05;99834.31;;;13.84;78.10
33625;BME280;19962;47.820;1.930;2023-04-24T00:22:32;99843.41;;;13.85;77.95
33625;BME280;19962;47.820;1.930;2023-04-24T00:24:59;99849.44;;;13.77;78.13
33625;BME280;19962;47.820;1.930;2023-04-24T00:27:25;99852.22;;;13.82;77.57
33625;BME280;19962;47.820;1.930;2023-04-24T00:29:51;99856.06;;;13.81;77.55
33625;BME280;19962;47.820;1.930;2023-04-24T00:32:17;99858.78;;;13.71;76.85
33625;BME280;19962;47.820;1.930;2023-04-24T00:34:43;99876.88;;;13.57;76.95
33625;BME280;19962;47.820;1.930;2023-04-24T00:37:09;99866.69;;;13.57;77.52
33625;BME280;19962;47.820;1.930;2023-04-24T00:39:35;99876.34;;;13.60;77.06
33625;BME280;19962;47.820;1.930;2023-04-24T00:42:01;99885.19;;;13.67;76.97
33625;BME280;19962;47.820;1.930;2023-04-24T00:44:28;99886.06;;;13.72;76.75
33625;BME280;19962;47.820;1.930;2023-04-24T00:46:55;99889.09;;;13.71;76.55
33625;BME280;19962;47.820;1.930;2023-04-24T00:49:22;99887.97;;;13.67;76.56
33625;BME280;19962;47.820;1.930;2023-04-24T00:51:49;99884.38;;;13.66;76.33
33625;BME280;19962;47.820;1.930;2023-04-24T00:54:17;99879.94;;;13.65;76.45
33625;BME280;19962;47.820;1.930;2023-04-24T00:56:45;99880.28;;;13.74;76.39
33625;BME280;19962;47.820;1.930;2023-04-24T00:59:12;99879.13;;;13.65;76.12
33625;BME280;19962;47.820;1.930;2023-04-24T01:01:39;99879.44;;;13.68;76.33
33625;BME280;19962;47.820;1.930;2023-04-24T01:04:09;99872.81;;;13.69;76.09
33625;BME280;19962;47.820;1.930;2023-04-24T01:06:39;99886.34;;;13.71;75.96
33625;BME280;19962;47.820;1.930;2023-04-24T01:09:06;99882.91;;;13.54;76.40
33625;BME280;19962;47.820;1.930;2023-04-24T01:11:37;99873.56;;;13.55;76.67
33625;BME280;19962;47.820;1.930;2023-04-24T01:14:03;99876.25;;;13.50;76.62
33625;BME280;19962;47.820;1.930;2023-04-24T01:16:30;99876.84;;;13.52;76.69
33625;BME280;19962;47.820;1.930;2023-04-24T01:18:56;99884.38;;;13.61;76.11
33625;BME280;19962;47.820;1.930;2023-04-24T01:21:22;99885.41;;;13.55;75.74
33625;BME280;19962;47.820;1.930;2023-04-24T01:23:49;99888.13;;;13.50;76.06
33625;BME280;19962;47.820;1.930;2023-04-24T01:26:17;99887.84;;;13.47;76.28
33625;BME280;19962;47.820;1.930;2023-04-24T01:28:46;99881.22;;;13.48;76.37
33625;BME280;19962;47.820;1.930;2023-04-24T01:31:12;99880.38;;;13.47;76.08
33625;BME280;19962;47.820;1.930;2023-04-24T01:33:38;99882.31;;;13.47;75.74
33625;BME280;19962;47.820;1.930;2023-04-24T01:36:05;99875.44;;;13.49;75.84
33625;BME280;19962;47.820;1.930;2023-04-24T01:38:31;99880.38;;;13.47;75.86
33625;BME280;19962;47.820;1.930;2023-04-24T01:40:57;99887.22;;;13.40;75.85
33625;BME280;19962;47.820;1.930;2023-04-24T01:43:24;99892.75;;;13.45;76.12
33625;BME280;19962;47.820;1.930;2023-04-24T01:45:50;99887.81;;;13.42;75.57
33625;BME280;19962;47.820;1.930;2023-04-24T01:48:16;99886.31;;;13.29;76.22
33625;BME280;19962;47.820;1.930;2023-04-24T01:50:42;99888.59;;;13.37;75.77
33625;BME280;19962;47.820;1.930;2023-04-24T01:53:09;99888.28;;;13.34;75.78
33625;BME280;19962;47.820;1.930;2023-04-24T01:55:35;99885.06;;;13.42;75.70
33625;BME280;19962;47.820;1.930;2023-04-24T01:58:02;99895.00;;;13.48;75.27
33625;BME280;19962;47.820;1.930;2023-04-24T02:00:28;99899.97;;;13.46;75.41
33625;BME280;19962;47.820;1.930;2023-04-24T02:02:54;99892.78;;;13.50;75.07
33625;BME280;19962;47.820;1.930;2023-04-24T02:05:20;99888.97;;;13.51;75.23
33625;BME280;19962;47.820;1.930;2023-04-24T02:07:46;99903.28;;;13.48;75.02
33625;BME280;19962;47.820;1.930;2023-04-24T02:10:12;99891.38;;;13.42;75.38
33625;BME280;19962;47.820;1.930;2023-04-24T02:12:38;99886.97;;;13.41;75.21
33625;BME280;19962;47.820;1.930;2023-04-24T02:15:05;99892.44;;;13.36;75.26
33625;BME280;19962;47.820;1.930;2023-04-24T02:17:31;99896.06;;;13.42;75.30
33625;BME280;19962;47.820;1.930;2023-04-24T02:19:57;99897.50;;;13.49;74.93
33625;BME280;19962;47.820;1.930;2023-04-24T02:22:23;99898.31;;;13.50;74.65
33625;BME280;19962;47.820;1.930;2023-04-24T02:24:49;99908.72;;;13.38;74.80
33625;BME280;19962;47.820;1.930;2023-04-24T02:27:15;99902.59;;;13.31;75.22
33625;BME280;19962;47.820;1.930;2023-04-24T02:29:42;99907.31;;;13.35;75.27
33625;BME280;19962;47.820;1.930;2023-04-24T02:32:08;99904.38;;;13.47;74.62
33625;BME280;19962;47.820;1.930;2023-04-24T02:34:37;99904.69;;;13.55;74.42
33625;BME280;19962;47.820;1.930;2023-04-24T02:37:04;99905.78;;;13.54;74.33
33625;BME280;19962;47.820;1.930;2023-04-24T02:39:30;99911.03;;;13.51;74.48
33625;BME280;19962;47.820;1.930;2023-04-24T02:41:56;99914.34;;;13.58;74.35
33625;BME280;19962;47.820;1.930;2023-04-24T02:44:22;99913.28;;;13.59;74.22
33625;BME280;19962;47.820;1.930;2023-04-24T02:46:48;99919.53;;;13.49;74.52
33625;BME280;19962;47.820;1.930;2023-04-24T02:49:14;99924.44;;;13.42;75.07
33625;BME280;19962;47.820;1.930;2023-04-24T02:51:41;99920.88;;;13.42;74.66
33625;BME280;19962;47.820;1.930;2023-04-24T02:54:08;99915.84;;;13.34;75.11
33625;BME280;19962;47.820;1.930;2023-04-24T02:56:35;99922.81;;;13.46;74.84
33625;BME280;19962;47.820;1.930;2023-04-24T02:59:02;99924.22;;;13.49;74.69
33625;BME280;19962;47.820;1.930;2023-04-24T03:01:28;99925.53;;;13.41;75.20
33625;BME280;19962;47.820;1.930;2023-04-24T03:03:55;99926.63;;;13.40;74.94
33625;BME280;19962;47.820;1.930;2023-04-24T03:06:21;99920.59;;;13.43;75.33
33625;BME280;19962;47.820;1.930;2023-04-24T03:08:47;99925.34;;;13.53;75.09
33625;BME280;19962;47.820;1.930;2023-04-24T03:11:13;99934.72;;;13.52;75.01
33625;BME280;19962;47.820;1.930;2023-04-24T03:13:39;99933.09;;;13.56;74.74
33625;BME280;19962;47.820;1.930;2023-04-24T03:16:05;99928.97;;;13.58;74.77
33625;BME280;19962;47.820;1.930;2023-04-24T03:18:31;99943.06;;;13.62;74.41
33625;BME280;19962;47.820;1.930;2023-04-24T03:20:57;99931.53;;;13.70;74.43
33625;BME280;19962;47.820;1.930;2023-04-24T03:23:24;99947.19;;;13.64;74.61
33625;BME280;19962;47.820;1.930;2023-04-24T03:25:50;99939.47;;;13.61;74.87
33625;BME280;19962;47.820;1.930;2023-04-24T03:28:16;99947.41;;;13.53;75.09
33625;BME280;19962;47.820;1.930;2023-04-24T03:30:42;99951.25;;;13.52;75.10
33625;BME280;19962;47.820;1.930;2023-04-24T03:33:08;99951.81;;;13.54;75.15
33625;BME280;19962;47.820;1.930;2023-04-24T03:35:35;99954.56;;;13.54;75.08
33625;BME280;19962;47.820;1.930;2023-04-24T03:38:02;99960.00;;;13.44;75.94
33625;BME280;19962;47.820;1.930;2023-04-24T03:40:30;99961.69;;;13.50;75.89
33625;BME280;19962;47.820;1.930;2023-04-24T03:42:56;99959.56;;;13.57;75.87
33625;BME280;19962;47.820;1.930;2023-04-24T03:45:22;99952.34;;;13.51;75.96
33625;BME280;19962;47.820;1.930;2023-04-24T03:47:48;99955.09;;;13.51;76.08
33625;BME280;19962;47.820;1.930;2023-04-24T03:50:14;99949.03;;;13.54;75.86
33625;BME280;19962;47.820;1.930;2023-04-24T03:52:40;99950.72;;;13.55;75.79
33625;BME280;19962;47.820;1.930;2023-04-24T03:55:07;99947.75;;;13.61;75.99
33625;BME280;19962;47.820;1.930;2023-04-24T03:57:33;99949.66;;;13.61;75.83
33625;BME280;19962;47.820;1.930;2023-04-24T03:59:59;99950.72;;;13.55;76.20
33625;BME280;19962;47.820;1.930;2023-04-24T04:02:25;99957.28;;;13.49;76.22
33625;BME280;19962;47.820;1.930;2023-04-24T04:04:51;99956.50;;;13.53;76.25
33625;BME280;19962;47.820;1.930;2023-04-24T04:07:17;99948.25;;;13.53;76.05
33625;BME280;19962;47.820;1.930;2023-04-24T04:09:44;99963.66;;;13.54;75.79
33625;BME280;19962;47.820;1.930;2023-04-24T04:12:10;99963.94;;;13.53;75.81
33625;BME280;19962;47.820;1.930;2023-04-24T04:14:36;99959.56;;;13.57;75.68
33625;BME280;19962;47.820;1.930;2023-04-24T04:17:02;99969.09;;;13.44;76.29
33625;BME280;19962;47.820;1.930;2023-04-24T04:19:28;99972.66;;;13.45;76.38
33625;BME280;19962;47.820;1.930;2023-04-24T04:21:54;99969.44;;;13.53;76.17
33625;BME280;19962;47.820;1.930;2023-04-24T04:24:22;99977.38;;;13.44;76.24
33625;BME280;19962;47.820;1.930;2023-04-24T04:26:48;99981.53;;;13.47;76.49
33625;BME280;19962;47.820;1.930;2023-04-24T04:29:18;99984.84;;;13.49;76.45
33625;BME280;19962;47.820;1.930;2023-04-24T04:31:44;99989.09;;;13.61;75.89
33625;BME280;19962;47.820;1.930;2023-04-24T04:34:10;99998.44;;;13.60;75.71
33625;BME280;19962;47.820;1.930;2023-04-24T04:36:37;99995.91;;;13.54;75.52
33625;BME280;19962;47.820;1.930;2023-04-24T04:39:06;99998.44;;;13.60;75.61
33625;BME280;19962;47.820;1.930;2023-04-24T04:41:32;100001.47;;;13.59;75.63
33625;BME280;19962;47.820;1.930;2023-04-24T04:44:01;100007.47;;;13.51;75.70
33625;BME280;19962;47.820;1.930;2023-04-24T04:46:30;100007.53;;;13.61;75.41
33625;BME280;19962;47.820;1.930;2023-04-24T04:49:00;100010.31;;;13.61;75.60
33625;BME280;19962;47.820;1.930;2023-04-24T04:51:27;100016.72;;;13.40;76.32
33625;BME280;19962;47.820;1.930;2023-04-24T04:53:53;100021.47;;;13.44;76.68
33625;BME280;19962;47.820;1.930;2023-04-24T04:56:19;100023.63;;;13.42;76.53
33625;BME280;19962;47.820;1.930;2023-04-24T04:58:45;100029.97;;;13.43;76.35
33625;BME280;19962;47.820;1.930;2023-04-24T05:01:11;100033.25;;;13.40;76.63
33625;BME280;19962;47.820;1.930;2023-04-24T05:03:37;100029.78;;;13.49;76.52
33625;BME280;19962;47.820;1.930;2023-04-24T05:06:03;100043.28;;;13.51;76.32
33625;BME280;19962;47.820;1.930;2023-04-24T05:08:30;100047.44;;;13.53;76.10
33625;BME280;19962;47.820;1.930;2023-04-24T05:10:56;100052.69;;;13.55;76.25
33625;BME280;19962;47.820;1.930;2023-04-24T05:13:22;100059.28;;;13.54;76.10
33625;BME280;19962;47.820;1.930;2023-04-24T05:15:48;100070.94;;;13.61;75.88
33625;BME280;19962;47.820;1.930;2023-04-24T05:18:14;100068.91;;;13.51;76.24
33625;BME280;19962;47.820;1.930;2023-04-24T05:20:41;100070.22;;;13.44;76.48
33625;BME280;19962;47.820;1.930;2023-04-24T05:23:09;100073.56;;;13.46;76.98
33625;BME280;19962;47.820;1.930;2023-04-24T05:25:36;100080.81;;;13.57;76.40
33625;BME280;19962;47.820;1.930;2023-04-24T05:28:02;100079.72;;;13.58;76.32
33625;BME280;19962;47.820;1.930;2023-04-24T05:30:28;100080.19;;;13.50;76.82
33625;BME280;19962;47.820;1.930;2023-04-24T05:32:55;100078.53;;;13.49;76.62
33625;BME280;19962;47.820;1.930;2023-04-24T05:35:21;100086.06;;;13.58;76.42
33625;BME280;19962;47.820;1.930;2023-04-24T05:37:47;100095.78;;;13.66;75.95
33625;BME280;19962;47.820;1.930;2023-04-24T05:40:13;100091.94;;;13.67;76.02
33625;BME280;19962;47.820;1.930;2023-04-24T05:42:39;100100.16;;;13.62;76.42
33625;BME280;19962;47.820;1.930;2023-04-24T05:45:06;100111.59;;;13.49;76.49
33625;BME280;19962;47.820;1.930;2023-04-24T05:47:32;100117.25;;;13.59;76.74
33625;BME280;19962;47.820;1.930;2023-04-24T05:49:58;100113.78;;;13.73;76.30
33625;BME280;19962;47.820;1.930;2023-04-24T05:52:25;100121.69;;;13.65;76.39
33625;BME280;19962;47.820;1.930;2023-04-24T05:54:51;100119.50;;;13.67;76.40
33625;BME280;19962;47.820;1.930;2023-04-24T05:57:17;100129.72;;;13.66;76.15
33625;BME280;19962;47.820;1.930;2023-04-24T05:59:43;100129.47;;;13.68;76.05
33625;BME280;19962;47.820;1.930;2023-04-24T06:02:09;100133.31;;;13.72;76.04
33625;BME280;19962;47.820;1.930;2023-04-24T06:04:36;100143.53;;;13.71;75.79
33625;BME280;19962;47.820;1.930;2023-04-24T06:07:02;100151.56;;;13.73;76.11
33625;BME280;19962;47.820;1.930;2023-04-24T06:09:28;100140.53;;;13.73;75.92
33625;BME280;19962;47.820;1.930;2023-04-24T06:11:54;100147.59;;;13.64;76.23
33625;BME280;19962;47.820;1.930;2023-04-24T06:14:22;100154.53;;;13.66;76.21
33625;BME280;19962;47.820;1.930;2023-04-24T06:16:48;100151.88;;;13.76;75.56
33625;BME280;19962;47.820;1.930;2023-04-24T06:19:14;100148.31;;;13.81;75.07
33625;BME280;19962;47.820;1.930;2023-04-24T06:21:40;100163.78;;;13.82;75.18
33625;BME280;19962;47.820;1.930;2023-04-24T06:24:06;100162.38;;;13.79;75.49
33625;BME280;19962;47.820;1.930;2023-04-24T06:26:32;100163.19;;;13.80;75.22
33625;BME280;19962;47.820;1.930;2023-04-24T06:28:58;100168.72;;;13.80;75.16
33625;BME280;19962;47.820;1.930;2023-04-24T06:31:26;100172.41;;;13.64;75.67
33625;BME280;19962;47.820;1.930;2023-04-24T06:33:52;100172.41;;;13.64;75.58
33625;BME280;19962;47.820;1.930;2023-04-24T06:36:18;100183.44;;;13.64;75.93
33625;BME280;19962;47.820;1.930;2023-04-24T06:38:44;100177.88;;;13.59;75.97
33625;BME280;19962;47.820;1.930;2023-04-24T06:41:12;100181.00;;;13.67;75.86
33625;BME280;19962;47.820;1.930;2023-04-24T06:43:38;100178.06;;;13.79;75.53
33625;BME280;19962;47.820;1.930;2023-04-24T06:46:04;100188.94;;;13.64;75.60
33625;BME280;19962;47.820;1.930;2023-04-24T06:48:31;100186.00;;;13.70;75.75
33625;BME280;19962;47.820;1.930;2023-04-24T06:50:57;100194.13;;;13.82;75.33
33625;BME280;19962;47.820;1.930;2023-04-24T06:53:23;100193.09;;;13.93;74.89
33625;BME280;19962;47.820;1.930;2023-04-24T06:55:49;100191.53;;;14.02;74.50
33625;BME280;19962;47.820;1.930;2023-04-24T06:58:16;100198.25;;;14.11;74.25
33625;BME280;19962;47.820;1.930;2023-04-24T07:00:42;100189.00;;;13.95;74.34
33625;BME280;19962;47.820;1.930;2023-04-24T07:03:08;100190.13;;;13.99;74.48
33625;BME280;19962;47.820;1.930;2023-04-24T07:05:34;100188.78;;;14.02;74.61
33625;BME280;19962;47.820;1.930;2023-04-24T07:08:01;100200.44;;;14.09;74.03
33625;BME280;19962;47.820;1.930;2023-04-24T07:10:27;100189.75;;;14.17;73.77
33625;BME280;19962;47.820;1.930;2023-04-24T07:12:55;100200.59;;;14.24;73.50
33625;BME280;19962;47.820;1.930;2023-04-24T07:15:22;100202.75;;;14.17;73.64
33625;BME280;19962;47.820;1.930;2023-04-24T07:17:49;100205.97;;;14.09;73.67
33625;BME280;19962;47.820;1.930;2023-04-24T07:20:15;100206.53;;;14.11;74.13
33625;BME280;19962;47.820;1.930;2023-04-24T07:22:41;100207.16;;;14.18;73.83
33625;BME280;19962;47.820;1.930;2023-04-24T07:25:08;100204.78;;;14.26;73.73
33625;BME280;19962;47.820;1.930;2023-04-24T07:27:35;100201.75;;;14.28;73.48
33625;BME280;19962;47.820;1.930;2023-04-24T07:30:03;100205.66;;;14.32;73.36
33625;BME280;19962;47.820;1.930;2023-04-24T07:32:29;100203.75;;;14.32;72.94
33625;BME280;19962;47.820;1.930;2023-04-24T07:34:56;100213.91;;;14.27;73.04
33625;BME280;19962;47.820;1.930;2023-04-24T07:37:22;100203.28;;;14.19;73.01
33625;BME280;19962;47.820;1.930;2023-04-24T07:39:49;100207.91;;;14.13;73.23
33625;BME280;19962;47.820;1.930;2023-04-24T07:42:15;100198.25;;;14.11;73.16
33625;BME280;19962;47.820;1.930;2023-04-24T07:44:41;100198.25;;;14.11;73.26
33625;BME280;19962;47.820;1.930;2023-04-24T07:47:07;100198.88;;;14.18;73.12
33625;BME280;19962;47.820;1.930;2023-04-24T07:49:33;100196.63;;;14.15;72.82
33625;BME280;19962;47.820;1.930;2023-04-24T07:52:00;100199.69;;;14.18;73.09
33625;BME280;19962;47.820;1.930;2023-04-24T07:54:28;100200.75;;;14.12;73.19
33625;BME280;19962;47.820;1.930;2023-04-24T07:56:54;100201.59;;;14.13;73.34
33625;BME280;19962;47.820;1.930;2023-04-24T07:59:21;100210.53;;;14.25;73.02
33625;BME280;19962;47.820;1.930;2023-04-24T08:01:47;100210.53;;;14.25;72.60
33625;BME280;19962;47.820;1.930;2023-04-24T08:04:13;100208.47;;;14.37;72.29
33625;BME280;19962;47.820;1.930;2023-04-24T08:06:39;100207.38;;;14.43;71.99
33625;BME280;19962;47.820;1.930;2023-04-24T08:09:05;100204.34;;;14.39;72.49
33625;BME280;19962;47.820;1.930;2023-04-24T08:11:31;100205.47;;;14.43;72.30
33625;BME280;19962;47.820;1.930;2023-04-24T08:13:58;100216.56;;;14.48;72.46
33625;BME280;19962;47.820;1.930;2023-04-24T08:16:24;100202.00;;;14.58;72.23
33625;BME280;19962;47.820;1.930;2023-04-24T08:18:51;100207.56;;;14.63;72.29
33625;BME280;19962;47.820;1.930;2023-04-24T08:21:18;100200.16;;;14.68;72.08
33625;BME280;19962;47.820;1.930;2023-04-24T08:23:47;100205.97;;;14.72;71.77
33625;BME280;19962;47.820;1.930;2023-04-24T08:26:13;100214.81;;;14.74;71.70
33625;BME280;19962;47.820;1.930;2023-04-24T08:28:40;100213.69;;;14.70;71.87
33625;BME280;19962;47.820;1.930;2023-04-24T08:31:06;100211.47;;;14.67;71.81
33625;BME280;19962;47.820;1.930;2023-04-24T08:33:32;100220.56;;;14.67;71.95
33625;BME280;19962;47.820;1.930;2023-04-24T08:36:04;100232.66;;;14.61;71.50
33625;BME280;19962;47.820;1.930;2023-04-24T08:38:31;100231.28;;;14.59;72.13
33625;BME280;19962;47.820;1.930;2023-04-24T08:40:59;100227.16;;;14.61;72.08
33625;BME280;19962;47.820;1.930;2023-04-24T08:43:27;100226.88;;;14.63;71.99
33625;BME280;19962;47.820;1.930;2023-04-24T08:45:56;100235.72;;;14.65;71.71
33625;BME280;19962;47.820;1.930;2023-04-24T08:48:23;100227.19;;;14.66;71.64
33625;BME280;19962;47.820;1.930;2023-04-24T08:50:51;100227.38;;;14.55;71.65
33625;BME280;19962;47.820;1.930;2023-04-24T08:53:18;100233.47;;;14.57;71.39
33625;BME280;19962;47.820;1.930;2023-04-24T08:55:46;100238.75;;;14.63;71.71
33625;BME280;19962;47.820;1.930;2023-04-24T08:58:14;100237.41;;;14.66;71.34
33625;BME280;19962;47.820;1.930;2023-04-24T09:00:41;100236.91;;;14.74;71.18
33625;BME280;19962;47.820;1.930;2023-04-24T09:03:16;100240.28;;;14.81;70.99
33625;BME280;19962;47.820;1.930;2023-04-24T09:05:47;100248.03;;;14.84;70.71
33625;BME280;19962;47.820;1.930;2023-04-24T09:08:14;100252.78;;;14.93;70.19
33625;BME280;19962;47.820;1.930;2023-04-24T09:10:40;100250.91;;;14.99;70.11
33625;BME280;19962;47.820;1.930;2023-04-24T09:13:07;100248.91;;;14.94;70.11
33625;BME280;19962;47.820;1.930;2023-04-24T09:15:35;100239.31;;;14.97;69.94
33625;BME280;19962;47.820;1.930;2023-04-24T09:18:01;100239.84;;;14.99;70.20
33625;BME280;19962;47.820;1.930;2023-04-24T09:20:28;100245.94;;;15.01;70.14
33625;BME280;19962;47.820;1.930;2023-04-24T09:22:55;100240.41;;;15.01;69.84
33625;BME280;19962;47.820;1.930;2023-04-24T09:25:22;100245.44;;;15.09;69.53
33625;BME280;19962;47.820;1.930;2023-04-24T09:27:48;100241.56;;;15.10;69.65
33625;BME280;19962;47.820;1.930;2023-04-24T09:30:14;100248.81;;;15.16;69.55
33625;BME280;19962;47.820;1.930;2023-04-24T09:32:46;100242.19;;;15.17;69.41
33625;BME280;19962;47.820;1.930;2023-04-24T09:35:14;100243.84;;;15.18;69.26
33625;BME280;19962;47.820;1.930;2023-04-24T09:37:45;100245.50;;;15.19;69.38
33625;BME280;19962;47.820;1.930;2023-04-24T09:40:21;100243.28;;;15.16;68.97
33625;BME280;19962;47.820;1.930;2023-04-24T09:42:57;100246.31;;;15.14;68.71
33625;BME280;19962;47.820;1.930;2023-04-24T09:45:36;100247.03;;;15.00;69.24
33625;BME280;19962;47.820;1.930;2023-04-24T09:48:03;100246.25;;;15.04;69.65
33625;BME280;19962;47.820;1.930;2023-04-24T09:50:30;100247.09;;;15.10;69.32
33625;BME280;19962;47.820;1.930;2023-04-24T09:53:02;100247.72;;;15.22;69.26
33625;BME280;19962;47.820;1.930;2023-04-24T09:55:29;100251.38;;;15.32;69.14
33625;BME280;19962;47.820;1.930;2023-04-24T09:57:57;100253.69;;;15.40;68.79
33625;BME280;19962;47.820;1.930;2023-04-24T10:00:28;100256.47;;;15.45;68.13
33625;BME280;19962;47.820;1.930;2023-04-24T10:02:59;100259.22;;;15.45;67.95
33625;BME280;19962;47.820;1.930;2023-04-24T10:05:32;100259.50;;;15.49;67.74
33625;BME280;19962;47.820;1.930;2023-04-24T10:08:09;100262.28;;;15.54;67.94
33625;BME280;19962;47.820;1.930;2023-04-24T10:10:40;100257.09;;;15.62;67.74
33625;BME280;19962;47.820;1.930;2023-04-24T10:13:10;100266.19;;;15.58;67.35
33625;BME280;19962;47.820;1.930;2023-04-24T10:15:37;100259.59;;;15.64;67.51
33625;BME280;19962;47.820;1.930;2023-04-24T10:18:05;100261.53;;;15.68;67.02
33625;BME280;19962;47.820;1.930;2023-04-24T10:20:33;100256.78;;;15.59;66.41
33625;BME280;19962;47.820;1.930;2023-04-24T10:23:00;100257.13;;;15.72;66.72
33625;BME280;19962;47.820;1.930;2023-04-24T10:25:31;100254.38;;;15.72;65.72
33625;BME280;19962;47.820;1.930;2023-04-24T10:27:58;100257.38;;;15.66;65.79
33625;BME280;19962;47.820;1.930;2023-04-24T10:30:28;100247.69;;;15.63;66.71
33625;BME280;19962;47.820;1.930;2023-04-24T10:32:54;100258.47;;;15.60;66.72
33625;BME280;19962;47.820;1.930;2023-04-24T10:35:22;100252.69;;;15.66;66.01
33625;BME280;19962;47.820;1.930;2023-04-24T10:37:54;100253.84;;;15.75;65.59
33625;BME280;19962;47.820;1.930;2023-04-24T10:40:34;100246.41;;;15.86;65.50
33625;BME280;19962;47.820;1.930;2023-04-24T10:43:04;100246.41;;;15.91;65.22
33625;BME280;19962;47.820;1.930;2023-04-24T10:45:34;100246.44;;;15.96;65.59
33625;BME280;19962;47.820;1.930;2023-04-24T10:48:03;100248.09;;;16.02;65.09
33625;BME280;19962;47.820;1.930;2023-04-24T10:50:46;100253.09;;;16.05;64.56
33625;BME280;19962;47.820;1.930;2023-04-24T10:53:17;100249.44;;;15.84;64.14
33625;BME280;19962;47.820;1.930;2023-04-24T10:55:49;100246.44;;;15.96;63.99
33625;BME280;19962;47.820;1.930;2023-04-24T10:58:18;100248.94;;;16.07;63.47
33625;BME280;19962;47.820;1.930;2023-04-24T11:00:58;100244.81;;;16.15;62.95
33625;BME280;19962;47.820;1.930;2023-04-24T11:03:26;100239.84;;;16.22;62.90
33625;BME280;19962;47.820;1.930;2023-04-24T11:06:04;100242.06;;;16.30;62.20
33625;BME280;19962;47.820;1.930;2023-04-24T11:08:43;100228.81;;;16.42;62.17
33625;BME280;19962;47.820;1.930;2023-04-24T11:11:15;100233.53;;;16.46;61.34
33625;BME280;19962;47.820;1.930;2023-04-24T11:16:34;100241.53;;;16.48;60.89
33625;BME280;19962;47.820;1.930;2023-04-24T11:24:37;100245.41;;;16.32;59.52
33625;BME280;19962;47.820;1.930;2023-04-24T11:29:45;100239.84;;;16.22;57.86
33625;BME280;19962;47.820;1.930;2023-04-24T11:32:26;100234.84;;;16.19;57.96
33625;BME280;19962;47.820;1.930;2023-04-24T11:37:21;100244.78;;;16.00;58.30
33625;BME280;19962;47.820;1.930;2023-04-24T11:39:49;100238.41;;;15.94;58.85
33625;BME280;19962;47.820;1.930;2023-04-24T11:42:16;100234.28;;;16.07;59.04
33625;BME280;19962;47.820;1.930;2023-04-24T11:44:43;100232.09;;;16.24;58.17
33625;BME280;19962;47.820;1.930;2023-04-24T11:47:09;100236.25;;;16.26;57.45
33625;BME280;19962;47.820;1.930;2023-04-24T11:49:38;100237.91;;;16.32;57.15
33625;BME280;19962;47.820;1.930;2023-04-24T11:52:05;100231.31;;;16.43;57.61
33625;BME280;19962;47.820;1.930;2023-04-24T11:54:32;100232.97;;;16.49;57.06
33625;BME280;19962;47.820;1.930;2023-04-24T11:56:58;100237.13;;;16.42;56.31
33625;BME280;19962;47.820;1.930;2023-04-24T11:59:24;100231.56;;;16.27;56.57
33625;BME280;19962;47.820;1.930;2023-04-24T12:01:50;100236.25;;;16.21;55.41
33625;BME280;19962;47.820;1.930;2023-04-24T12:04:17;100234.28;;;16.07;54.99
33625;BME280;19962;47.820;1.930;2023-04-24T12:07:02;100232.59;;;16.01;54.86
33625;BME280;19962;47.820;1.930;2023-04-24T12:09:39;100231.75;;;16.00;56.56
33625;BME280;19962;47.820;1.930;2023-04-24T12:12:06;100241.44;;;15.98;57.04
33625;BME280;19962;47.820;1.930;2023-04-24T12:14:33;100237.56;;;15.94;56.77
33625;BME280;19962;47.820;1.930;2023-04-24T12:16:59;100241.44;;;15.93;57.63
33625;BME280;19962;47.820;1.930;2023-04-24T12:19:25;100247.22;;;15.91;57.89
33625;BME280;19962;47.820;1.930;2023-04-24T12:22:02;100237.81;;;15.87;58.06
33625;BME280;19962;47.820;1.930;2023-04-24T12:24:29;100240.88;;;15.86;58.16
33625;BME280;19962;47.820;1.930;2023-04-24T12:26:57;100240.56;;;15.82;58.37
33625;BME280;19962;47.820;1.930;2023-04-24T12:29:24;100237.78;;;15.77;57.89
33625;BME280;19962;47.820;1.930;2023-04-24T12:31:51;100238.06;;;15.81;57.61
33625;BME280;19962;47.820;1.930;2023-04-24T12:34:25;100234.00;;;15.98;56.58
33625;BME280;19962;47.820;1.930;2023-04-24T12:36:51;100234.84;;;16.14;56.57
33625;BME280;19962;47.820;1.930;2023-04-24T12:39:19;100228.25;;;16.35;56.52
33625;BME280;19962;47.820;1.930;2023-04-24T12:42:12;100231.84;;;16.50;56.16
33625;BME280;19962;47.820;1.930;2023-04-24T12:44:38;100224.38;;;16.56;55.50
33625;BME280;19962;47.820;1.930;2023-04-24T12:47:04;100231.03;;;16.65;55.35
33625;BME280;19962;47.820;1.930;2023-04-24T12:49:31;100214.41;;;16.80;55.11
33625;BME280;19962;47.820;1.930;2023-04-24T12:51:57;100213.28;;;16.86;54.98
33625;BME280;19962;47.820;1.930;2023-04-24T12:54:23;100214.94;;;16.87;55.19
33625;BME280;19962;47.820;1.930;2023-04-24T12:56:49;100219.38;;;16.83;54.53
33625;BME280;19962;47.820;1.930;2023-04-24T12:59:16;100216.63;;;16.78;54.99
33625;BME280;19962;47.820;1.930;2023-04-24T13:01:43;100207.22;;;16.69;55.18
33625;BME280;19962;47.820;1.930;2023-04-24T13:04:09;100216.09;;;16.51;55.20
33625;BME280;19962;47.820;1.930;2023-04-24T13:06:35;100217.19;;;16.45;55.78